createdAt,value
2022-09-07T00:01:24.417Z,95897.69
2022-09-07T00:03:59.614Z,95899.63
2022-09-07T00:06:28.554Z,95888.88
2022-09-07T00:08:57.736Z,95898.56
2022-09-07T00:11:26.562Z,95894.31
2022-09-07T00:13:55.941Z,95892.00
2022-09-07T00:16:31.784Z,95895.13
2022-09-07T00:19:03.508Z,95890.25
2022-09-07T00:21:33.091Z,95883.00
2022-09-07T00:24:01.933Z,95894.00
2022-09-07T00:26:32.421Z,95894.84
2022-09-07T00:29:03.458Z,95896.41
2022-09-07T00:31:32.887Z,95902.56
2022-09-07T00:34:03.348Z,95893.75
2022-09-07T00:36:32.286Z,95893.47
2022-09-07T00:39:01.053Z,95885.81
2022-09-07T00:41:29.858Z,95898.59
2022-09-07T00:44:19.909Z,95904.75
2022-09-07T00:46:48.762Z,95900.53
2022-09-07T00:49:22.238Z,95895.13
2022-09-07T00:51:55.765Z,95889.75
2022-09-07T00:54:34.937Z,95885.91
2022-09-07T00:57:03.883Z,95886.78
2022-09-07T00:59:48.160Z,95889.59
2022-09-07T01:02:18.794Z,95905.94
2022-09-07T01:04:52.569Z,95894.53
2022-09-07T01:07:21.430Z,95898.41
2022-09-07T01:09:51.680Z,95895.72
2022-09-07T01:12:20.682Z,95899.50
2022-09-07T01:14:52.860Z,95894.41
2022-09-07T01:17:59.840Z,95887.13
2022-09-07T01:20:51.076Z,95878.69
2022-09-07T01:23:34.128Z,95872.59
2022-09-07T01:26:24.190Z,95878.78
2022-09-07T01:29:07.283Z,95865.34
2022-09-07T01:32:06.273Z,95869.66
2022-09-07T01:34:35.054Z,95856.56
2022-09-07T01:37:20.629Z,95873.31
2022-09-07T01:39:57.556Z,95876.09
2022-09-07T01:42:31.857Z,95883.13
2022-09-07T01:45:11.957Z,95877.34
2022-09-07T01:47:52.963Z,95867.72
2022-09-07T01:51:03.310Z,95871.25
2022-09-07T01:53:32.168Z,95865.06
2022-09-07T01:56:09.509Z,95863.16
2022-09-07T01:58:52.493Z,95864.72
2022-09-07T02:01:54.813Z,95868.22
2022-09-07T02:04:32.157Z,95874.03
2022-09-07T02:07:10.010Z,95882.13
2022-09-07T02:10:04.304Z,95884.06
2022-09-07T02:12:46.062Z,95889.09
2022-09-07T02:15:25.703Z,95874.41
2022-09-07T02:17:59.160Z,95881.41
2022-09-07T02:20:36.207Z,95885.25
2022-09-07T02:23:12.210Z,95891.06
2022-09-07T02:25:48.803Z,95891.81
2022-09-07T02:28:23.175Z,95894.91
2022-09-07T02:30:52.169Z,95897.59
2022-09-07T02:33:21.168Z,95888.72
2022-09-07T02:35:50.537Z,95897.22
2022-09-07T02:38:20.170Z,95885.59
2022-09-07T02:40:56.998Z,95882.50
2022-09-07T02:43:26.488Z,95883.28
2022-09-07T02:45:55.539Z,95899.50
2022-09-07T02:48:40.400Z,95891.75
2022-09-07T02:51:12.242Z,95882.84
2022-09-07T02:54:14.359Z,95874.63
2022-09-07T02:56:57.667Z,95880.00
2022-09-07T02:59:38.389Z,95883.88
2022-09-07T03:02:36.583Z,95890.06
2022-09-07T03:05:21.171Z,95893.47
2022-09-07T03:08:05.125Z,95880.50
2022-09-07T03:10:34.843Z,95887.59
2022-09-07T03:13:03.874Z,95880.38
2022-09-07T03:15:32.709Z,95882.13
2022-09-07T03:18:01.630Z,95881.16
2022-09-07T03:20:30.436Z,95884.22
2022-09-07T03:22:59.176Z,95888.44
2022-09-07T03:25:27.972Z,95889.19
2022-09-07T03:27:57.491Z,95886.47
2022-09-07T03:30:26.271Z,95891.16
2022-09-07T03:32:55.041Z,95888.47
2022-09-07T03:35:23.914Z,95873.19
2022-09-07T03:37:52.790Z,95888.41
2022-09-07T03:40:21.559Z,95886.53
2022-09-07T03:42:51.415Z,95887.66
2022-09-07T03:45:20.603Z,95883.84
2022-09-07T03:47:50.300Z,95882.34
2022-09-07T03:50:19.153Z,95876.91
2022-09-07T03:52:47.952Z,95887.66
2022-09-07T03:55:16.816Z,95879.41
2022-09-07T03:57:45.598Z,95872.22
2022-09-07T04:00:15.410Z,95867.19
2022-09-07T04:02:44.314Z,95871.16
2022-09-07T04:05:13.166Z,95875.25
2022-09-07T04:07:41.968Z,95883.41
2022-09-07T04:10:10.841Z,95885.47
2022-09-07T04:12:40.295Z,95888.69
2022-09-07T04:15:09.700Z,95894.34
2022-09-07T04:17:38.412Z,95893.75
2022-09-07T04:20:07.987Z,95893.00
2022-09-07T04:22:36.740Z,95901.44
2022-09-07T04:25:05.944Z,95912.44
2022-09-07T04:27:34.706Z,95913.28
2022-09-07T04:30:03.481Z,95913.50
2022-09-07T04:32:32.170Z,95910.78
2022-09-07T04:35:00.921Z,95912.94
2022-09-07T04:37:31.252Z,95905.63
2022-09-07T04:40:00.083Z,95907.66
2022-09-07T04:42:28.917Z,95903.59
2022-09-07T04:44:57.982Z,95902.03
2022-09-07T04:47:26.919Z,95907.03
2022-09-07T04:49:55.915Z,95910.88
2022-09-07T04:52:25.372Z,95912.25
2022-09-07T04:54:54.160Z,95916.66
2022-09-07T04:57:26.406Z,95921.81
2022-09-07T04:59:55.678Z,95926.91
2022-09-07T05:02:25.178Z,95927.31
2022-09-07T05:04:54.074Z,95927.31
2022-09-07T05:07:22.962Z,95925.00
2022-09-07T05:09:51.839Z,95920.34
2022-09-07T05:12:21.278Z,95912.59
2022-09-07T05:14:50.215Z,95911.81
2022-09-07T05:17:19.904Z,95919.94
2022-09-07T05:19:49.420Z,95918.78
2022-09-07T05:22:18.289Z,95923.84
2022-09-07T05:24:48.788Z,95918.06
2022-09-07T05:27:17.909Z,95920.03
2022-09-07T05:30:03.979Z,95918.47
2022-09-07T05:32:33.918Z,95916.16
2022-09-07T05:35:02.650Z,95919.28
2022-09-07T05:37:31.551Z,95923.13
2022-09-07T05:40:00.367Z,95922.34
2022-09-07T05:42:29.218Z,95924.28
2022-09-07T05:44:58.524Z,95926.59
2022-09-07T05:47:28.442Z,95922.34
2022-09-07T05:49:57.386Z,95914.19
2022-09-07T05:52:26.384Z,95915.69
2022-09-07T05:55:07.488Z,95921.88
2022-09-07T05:57:44.053Z,95921.50
2022-09-07T06:00:15.112Z,95914.53
2022-09-07T06:02:44.079Z,95899.47
2022-09-07T06:05:13.012Z,95899.03
2022-09-07T06:07:41.965Z,95897.47
2022-09-07T06:12:59.486Z,95882.38
2022-09-07T06:15:28.255Z,95885.47
2022-09-07T06:17:57.134Z,95895.94
2022-09-07T06:20:26.003Z,95891.22
2022-09-07T06:22:54.751Z,95890.81
2022-09-07T06:25:23.638Z,95902.47
2022-09-07T06:27:54.524Z,95891.28
2022-09-07T06:30:23.343Z,95893.25
2022-09-07T06:32:52.377Z,95901.38
2022-09-07T06:35:21.391Z,95899.47
2022-09-07T06:37:50.148Z,95911.09
2022-09-07T06:40:19.042Z,95906.84
2022-09-07T06:42:47.798Z,95913.03
2022-09-07T06:45:17.948Z,95906.47
2022-09-07T06:47:46.782Z,95905.31
2022-09-07T06:50:15.719Z,95906.09
2022-09-07T06:55:33.507Z,95907.25
2022-09-07T06:58:02.308Z,95894.03
2022-09-07T07:00:31.440Z,95896.34
2022-09-07T07:03:01.342Z,95900.66
2022-09-07T07:05:35.162Z,95898.34
2022-09-07T07:08:04.132Z,95899.50
2022-09-07T07:10:36.975Z,95892.94
2022-09-07T07:13:05.721Z,95908.06
2022-09-07T07:15:34.882Z,95905.34
2022-09-07T07:18:19.968Z,95908.81
2022-09-07T07:20:49.875Z,95901.84
2022-09-07T07:23:18.756Z,95902.22
2022-09-07T07:25:47.573Z,95902.22
2022-09-07T07:31:10.408Z,95893.63
2022-09-07T07:33:42.149Z,95906.38
2022-09-07T07:36:28.109Z,95893.25
2022-09-07T07:44:21.575Z,95890.22
2022-09-07T07:46:53.404Z,95889.84
2022-09-07T07:49:22.304Z,95889.84
2022-09-07T07:54:39.933Z,95894.84
2022-09-07T07:57:08.981Z,95897.56
2022-09-07T07:59:37.741Z,95892.16
2022-09-07T08:02:10.755Z,95884.03
2022-09-07T08:04:39.722Z,95892.94
2022-09-07T08:07:11.212Z,95899.13
2022-09-07T08:09:41.702Z,95898.38
2022-09-07T08:12:12.740Z,95892.94
2022-09-07T08:14:42.022Z,95895.66
2022-09-07T08:17:13.189Z,95898.72
2022-09-07T08:19:42.712Z,95898.72
2022-09-07T08:22:12.759Z,95902.19
2022-09-07T08:24:41.534Z,95905.31
2022-09-07T08:27:10.291Z,95902.25
2022-09-07T08:29:39.026Z,95909.59
2022-09-07T08:32:07.796Z,95901.06
2022-09-07T08:34:37.934Z,95901.84
2022-09-07T08:37:06.889Z,95891.41
2022-09-07T08:39:36.666Z,95892.56
2022-09-07T08:42:26.054Z,95892.56
2022-09-07T08:45:12.363Z,95880.22
2022-09-07T08:47:46.854Z,95889.09
2022-09-07T08:50:22.617Z,95891.81
2022-09-07T08:53:20.453Z,95892.19
2022-09-07T08:56:13.126Z,95892.16
2022-09-07T08:58:53.901Z,95893.69
2022-09-07T09:01:41.586Z,95877.78
2022-09-07T09:04:17.233Z,95885.88
2022-09-07T09:07:20.745Z,95880.81
2022-09-07T09:10:34.035Z,95868.31
2022-09-07T09:13:26.440Z,95872.53
2022-09-07T09:16:15.181Z,95876.78
2022-09-07T09:18:59.631Z,95881.13
2022-09-07T09:21:28.732Z,95873.78
2022-09-07T09:24:06.501Z,95877.31
2022-09-07T09:26:36.138Z,95884.72
2022-09-07T09:29:19.666Z,95875.50
2022-09-07T09:31:48.689Z,95877.03
2022-09-07T09:34:23.666Z,95868.91
2022-09-07T09:36:57.166Z,95878.19
2022-09-07T09:39:34.981Z,95889.44
2022-09-07T09:42:17.389Z,95880.53
2022-09-07T09:44:46.374Z,95872.03
2022-09-07T09:47:30.569Z,95858.88
2022-09-07T09:50:05.692Z,95859.63
2022-09-07T09:52:47.659Z,95858.88
2022-09-07T09:55:35.327Z,95850.75
2022-09-07T10:06:23.791Z,95837.66
2022-09-07T10:09:01.207Z,95831.47
2022-09-07T10:14:47.294Z,95839.19
2022-09-07T10:17:41.921Z,95839.22
2022-09-07T10:20:16.798Z,95849.66
2022-09-07T10:22:57.693Z,95846.56
2022-09-07T10:25:38.313Z,95843.84
2022-09-07T10:28:19.248Z,95845.81
2022-09-07T10:31:03.109Z,95838.06
2022-09-07T10:36:53.272Z,95849.25
2022-09-07T10:39:27.808Z,95857.00
2022-09-07T10:42:22.898Z,95865.53
2022-09-07T10:44:58.710Z,95865.53
2022-09-07T10:47:39.342Z,95865.53
2022-09-07T10:50:32.740Z,95865.53
2022-09-07T10:53:23.849Z,95867.47
2022-09-07T10:56:04.828Z,95872.47
2022-09-07T10:59:06.842Z,95880.22
2022-09-07T11:01:41.884Z,95882.91
2022-09-07T11:04:35.108Z,95873.25
2022-09-07T11:07:21.228Z,95870.56
2022-09-07T11:10:02.132Z,95870.56
2022-09-07T11:12:40.382Z,95865.50
2022-09-07T11:15:23.016Z,95862.03
2022-09-07T11:18:08.113Z,95849.66
2022-09-07T11:20:55.834Z,95862.41
2022-09-07T11:23:46.004Z,95845.41
2022-09-07T11:26:41.126Z,95846.16
2022-09-07T11:29:31.134Z,95839.22
2022-09-07T11:32:08.222Z,95841.50
2022-09-07T11:34:40.633Z,95840.31
2022-09-07T11:37:24.246Z,95834.09
2022-09-07T11:40:15.051Z,95835.63
2022-09-07T11:43:18.939Z,95832.50
2022-09-07T11:45:54.323Z,95826.31
2022-09-07T11:48:43.216Z,95825.16
2022-09-07T11:51:16.905Z,95814.69
2022-09-07T11:53:54.834Z,95800.03
2022-09-07T11:56:36.236Z,95793.06
2022-09-07T11:59:14.239Z,95797.31
2022-09-07T12:02:07.013Z,95799.59
2022-09-07T12:05:01.567Z,95796.53
2022-09-07T12:08:00.791Z,95804.63
2022-09-07T12:10:35.509Z,95806.19
2022-09-07T12:13:16.460Z,95800.38
2022-09-07T12:16:06.116Z,95789.16
2022-09-07T12:18:54.123Z,95804.22
2022-09-07T12:21:48.007Z,95790.72
2022-09-07T12:24:45.323Z,95802.28
2022-09-07T12:27:23.265Z,95792.63
2022-09-07T12:29:58.486Z,95795.31
2022-09-07T12:32:57.383Z,95773.72
2022-09-07T12:35:42.725Z,95761.00
2022-09-07T12:38:14.596Z,95759.81
2022-09-07T12:41:07.787Z,95757.13
2022-09-07T12:44:06.808Z,95750.19
2022-09-07T12:46:35.683Z,95726.25
2022-09-07T12:49:33.691Z,95736.66
2022-09-07T12:52:16.106Z,95755.56
2022-09-07T12:55:23.499Z,95755.97
2022-09-07T12:58:26.671Z,95767.16
2022-09-07T13:01:36.916Z,95768.31
2022-09-07T13:04:42.911Z,95774.88
2022-09-07T13:07:32.734Z,95784.50
2022-09-07T13:10:04.560Z,95778.72
2022-09-07T13:13:00.374Z,95764.84
2022-09-07T13:16:12.665Z,95769.09
2022-09-07T13:18:44.402Z,95770.66
2022-09-07T13:21:14.568Z,95766.38
2022-09-07T13:23:48.374Z,95764.06
2022-09-07T13:26:54.379Z,95766.38
2022-09-07T13:29:32.997Z,95756.75
2022-09-07T13:32:07.995Z,95746.72
2022-09-07T13:34:40.778Z,95732.44
2022-09-07T13:37:21.429Z,95716.97
2022-09-07T13:39:55.428Z,95718.16
2022-09-07T13:42:34.831Z,95718.88
2022-09-07T13:45:07.915Z,95717.38
2022-09-07T13:47:53.020Z,95723.13
2022-09-07T13:50:33.344Z,95717.34
2022-09-07T13:53:17.022Z,95713.06
2022-09-07T13:55:58.028Z,95714.63
2022-09-07T13:58:41.305Z,95718.09
2022-09-07T14:01:23.719Z,95707.28
2022-09-07T14:04:07.149Z,95706.09
2022-09-07T14:06:38.310Z,95705.34
2022-09-07T14:09:09.788Z,95700.34
2022-09-07T14:11:52.120Z,95686.44
2022-09-07T14:14:24.917Z,95689.91
2022-09-07T14:17:03.133Z,95707.69
2022-09-07T14:19:42.514Z,95690.69
2022-09-07T14:22:18.508Z,95684.13
2022-09-07T14:24:58.985Z,95687.97
2022-09-07T14:27:33.595Z,95690.69
2022-09-07T14:30:27.114Z,95690.72
2022-09-07T14:32:58.795Z,95684.13
2022-09-07T14:35:32.682Z,95680.28
2022-09-07T14:38:12.191Z,95687.63
2022-09-07T14:40:41.414Z,95692.25
2022-09-07T14:43:51.385Z,95695.72
2022-09-07T14:46:29.311Z,95691.50
2022-09-07T14:49:02.617Z,95679.53
2022-09-07T14:51:36.778Z,95669.13
2022-09-07T14:54:09.506Z,95669.91
2022-09-07T14:56:40.761Z,95672.59
2022-09-07T14:59:33.585Z,95667.97
2022-09-07T15:02:27.951Z,95656.78
2022-09-07T15:05:15.286Z,95654.06
2022-09-07T15:07:50.478Z,95659.47
2022-09-07T15:10:23.232Z,95662.16
2022-09-07T15:13:01.494Z,95657.53
2022-09-07T15:15:33.633Z,95657.53
2022-09-07T15:18:40.642Z,95663.72
2022-09-07T15:21:10.173Z,95664.13
2022-09-07T15:23:39.037Z,95661.00
2022-09-07T15:27:01.805Z,95651.38
2022-09-07T15:29:14.458Z,95647.91
2022-09-07T15:31:49.718Z,95648.69
2022-09-07T15:34:25.745Z,95634.75
2022-09-07T15:36:57.439Z,95631.31
2022-09-07T15:39:31.095Z,95632.84
2022-09-07T15:42:59.010Z,95637.88
2022-09-07T15:44:50.220Z,95635.94
2022-09-07T15:50:08.691Z,95611.59
2022-09-07T15:52:37.668Z,95612.78
2022-09-07T15:55:07.168Z,95611.22
2022-09-07T15:58:02.165Z,95612.78
2022-09-07T16:00:25.685Z,95605.41
2022-09-07T16:03:10.011Z,95602.72
2022-09-07T16:05:44.785Z,95603.50
2022-09-07T16:11:36.703Z,95602.34
2022-09-07T16:14:05.680Z,95598.09
2022-09-07T16:19:23.302Z,95601.59
2022-09-07T16:21:52.153Z,95592.31
2022-09-07T16:24:20.969Z,95582.66
2022-09-07T16:26:49.700Z,95575.69
2022-09-07T16:29:18.996Z,95576.06
2022-09-07T16:34:36.797Z,95573.38
2022-09-07T16:37:05.741Z,95576.44
2022-09-07T16:39:35.232Z,95557.94
2022-09-07T16:42:04.335Z,95550.56
2022-09-07T16:44:35.589Z,95548.63
2022-09-07T16:47:04.962Z,95530.84
2022-09-07T16:49:33.707Z,95535.13
2022-09-07T16:52:02.605Z,95540.13
2022-09-07T16:54:32.626Z,95529.31
2022-09-07T16:57:01.664Z,95521.59
2022-09-07T16:59:30.535Z,95522.72
2022-09-07T17:01:59.816Z,95520.41
2022-09-07T17:04:29.532Z,95511.91
2022-09-07T17:06:58.264Z,95493.75
2022-09-07T17:09:27.259Z,95495.69
2022-09-07T17:11:56.083Z,95493.38
2022-09-07T17:14:24.734Z,95484.09
2022-09-07T17:16:53.516Z,95485.66
2022-09-07T17:19:30.451Z,95480.59
2022-09-07T17:22:00.874Z,95481.38
2022-09-07T17:24:32.096Z,95470.19
2022-09-07T17:27:01.634Z,95476.72
2022-09-07T17:29:38.383Z,95473.63
2022-09-07T17:32:24.492Z,95474.00
2022-09-07T17:34:54.620Z,95470.09
2022-09-07T17:37:23.394Z,95473.25
2022-09-07T17:39:52.458Z,95476.34
2022-09-07T17:42:21.575Z,95461.25
2022-09-07T17:44:52.727Z,95479.00
2022-09-07T17:47:22.090Z,95457.72
2022-09-07T17:49:50.831Z,95466.63
2022-09-07T17:52:19.585Z,95479.00
2022-09-07T17:54:48.385Z,95471.25
2022-09-07T17:57:17.217Z,95461.59
2022-09-07T18:02:38.698Z,95439.56
2022-09-07T18:05:08.147Z,95422.16
2022-09-07T18:07:36.909Z,95428.75
2022-09-07T18:10:06.080Z,95434.91
2022-09-07T18:12:34.817Z,95426.38
2022-09-07T18:15:03.594Z,95417.47
2022-09-07T18:17:32.354Z,95422.88
2022-09-07T18:20:01.117Z,95403.88
2022-09-07T18:22:31.628Z,95409.66
2022-09-07T18:25:00.429Z,95407.69
2022-09-07T18:27:29.338Z,95398.78
2022-09-07T18:29:58.147Z,95395.28
2022-09-07T18:32:27.125Z,95404.13
2022-09-07T18:34:55.801Z,95403.72
2022-09-07T18:37:24.608Z,95383.56
2022-09-07T18:39:54.360Z,95394.69
2022-09-07T18:42:23.242Z,95392.75
2022-09-07T18:47:40.887Z,95384.28
2022-09-07T18:50:10.204Z,95380.00
2022-09-07T18:52:59.123Z,95376.47
2022-09-07T18:55:28.080Z,95382.31
2022-09-07T18:57:56.930Z,95380.81
2022-09-07T19:00:26.403Z,95378.84
2022-09-07T19:02:55.263Z,95374.59
2022-09-07T19:08:13.653Z,95357.19
2022-09-07T19:10:42.945Z,95344.81
2022-09-07T19:13:11.658Z,95353.22
2022-09-07T19:15:40.468Z,95352.81
2022-09-07T19:18:10.204Z,95335.78
2022-09-07T19:20:39.000Z,95335.75
2022-09-07T19:23:07.811Z,95334.63
2022-09-07T19:25:40.805Z,95331.50
2022-09-07T19:28:09.785Z,95324.16
2022-09-07T19:30:38.498Z,95319.88
2022-09-07T19:33:10.530Z,95312.09
2022-09-07T19:35:39.325Z,95302.75
2022-09-07T19:38:08.044Z,95300.34
2022-09-07T19:40:36.822Z,95300.66
2022-09-07T19:43:06.206Z,95295.63
2022-09-07T19:45:39.596Z,95289.06
2022-09-07T19:48:08.330Z,95277.00
2022-09-07T19:50:37.096Z,95270.03
2022-09-07T19:53:06.094Z,95278.09
2022-09-07T19:55:34.973Z,95273.41
2022-09-07T19:58:03.660Z,95275.69
2022-09-07T20:00:33.068Z,95272.25
2022-09-07T20:03:02.119Z,95279.56
2022-09-07T20:05:31.846Z,95289.19
2022-09-07T20:08:00.608Z,95291.09
2022-09-07T20:10:30.977Z,95319.34
2022-09-07T20:12:59.728Z,95327.06
2022-09-07T20:15:28.540Z,95327.06
2022-09-07T20:17:57.296Z,95324.63
2022-09-07T20:20:26.150Z,95282.72
2022-09-07T20:22:54.916Z,95191.94
2022-09-07T20:25:23.739Z,95159.44
2022-09-07T20:27:52.391Z,95147.91
2022-09-07T20:30:24.776Z,95181.31
2022-09-07T20:32:53.526Z,95175.28
2022-09-07T20:35:22.368Z,95219.53
2022-09-07T20:37:51.059Z,95220.75
2022-09-07T20:40:19.977Z,95233.19
2022-09-07T20:42:48.817Z,95218.06
2022-09-07T20:45:17.608Z,95239.31
2022-09-07T20:47:46.447Z,95234.25
2022-09-07T20:50:15.182Z,95229.19
2022-09-07T20:52:44.050Z,95221.47
2022-09-07T20:55:13.110Z,95220.69
2022-09-07T20:57:41.805Z,95214.97
2022-09-07T21:00:11.163Z,95220.78
2022-09-07T21:02:40.282Z,95221.16
2022-09-07T21:05:09.418Z,95218.91
2022-09-07T21:07:41.826Z,95222.78
2022-09-07T21:10:10.760Z,95221.31
2022-09-07T21:12:39.640Z,95218.94
2022-09-07T21:15:09.536Z,95220.06
2022-09-07T21:17:39.425Z,95225.91
2022-09-07T21:20:08.413Z,95218.91
2022-09-07T21:22:37.131Z,95223.19
2022-09-07T21:25:06.236Z,95220.13
2022-09-07T21:27:38.754Z,95216.69
2022-09-07T21:30:08.322Z,95224.81
2022-09-07T21:32:37.077Z,95218.22
2022-09-07T21:35:06.387Z,95220.53
2022-09-07T21:37:35.148Z,95213.84
2022-09-07T21:40:06.374Z,95199.50
2022-09-07T21:42:35.434Z,95210.97
2022-09-07T21:45:04.343Z,95215.53
2022-09-07T21:47:33.343Z,95212.50
2022-09-07T21:50:02.118Z,95213.25
2022-09-07T21:52:32.205Z,95217.47
2022-09-07T21:55:00.931Z,95235.94
2022-09-07T21:57:31.757Z,95282.00
2022-09-07T22:00:00.448Z,95291.72
2022-09-07T22:02:30.714Z,95258.84
2022-09-07T22:04:59.760Z,95293.72
2022-09-07T22:07:28.512Z,95270.91
2022-09-07T22:09:57.235Z,95255.84
2022-09-07T22:12:26.034Z,95250.44
2022-09-07T22:14:55.392Z,95282.66
2022-09-07T22:17:24.088Z,95263.34
2022-09-07T22:19:52.872Z,95240.06
2022-09-07T22:22:21.628Z,95248.53
2022-09-07T22:24:50.435Z,95237.59
2022-09-07T22:27:19.121Z,95238.34
2022-09-07T22:29:48.142Z,95228.75
2022-09-07T22:32:16.859Z,95224.13
2022-09-07T22:34:45.631Z,95209.50
2022-09-07T22:37:14.507Z,95215.59
2022-09-07T22:39:43.307Z,95208.56
2022-09-07T22:42:11.994Z,95219.41
2022-09-07T22:44:40.804Z,95216.38
2022-09-07T22:47:11.242Z,95207.09
2022-09-07T22:49:40.002Z,95193.59
2022-09-07T22:52:08.740Z,95193.25
2022-09-07T22:54:37.548Z,95200.25
2022-09-07T22:57:06.467Z,95197.13
2022-09-07T22:59:35.287Z,95196.06
2022-09-07T23:02:05.296Z,95198.00
2022-09-07T23:04:34.251Z,95185.63
2022-09-07T23:07:03.685Z,95175.13
2022-09-07T23:09:32.583Z,95176.31
2022-09-07T23:12:01.249Z,95171.72
2022-09-07T23:14:30.023Z,95166.25
2022-09-07T23:16:58.775Z,95170.09
2022-09-07T23:19:27.562Z,95172.38
2022-09-07T23:21:56.699Z,95173.44
2022-09-07T23:24:25.497Z,95222.91
2022-09-07T23:26:54.214Z,95214.69
2022-09-07T23:29:23.059Z,95222.22
2022-09-07T23:31:52.274Z,95206.22
2022-09-07T23:34:20.999Z,95209.09
2022-09-07T23:36:49.733Z,95214.75
2022-09-07T23:39:18.512Z,95203.75
2022-09-07T23:41:47.147Z,95196.66
2022-09-07T23:44:16.727Z,95203.50
2022-09-07T23:46:45.577Z,95191.41
2022-09-07T23:49:14.440Z,95184.31
2022-09-07T23:51:43.171Z,95183.41
2022-09-07T23:54:11.966Z,95157.66
2022-09-07T23:56:40.708Z,95142.03
2022-09-07T23:59:11.759Z,95149.53
